logo
App data

Crayon Physics Deluxe

Crayon Physics Deluxe is a 2D physics puzzle / sandbox game, in which you get to experience what it would be like if your drawings would be magically transformed into real physical objects. Solve puzzles with your artistic vision and creative use of physics.
Store | Hub | SteamDB | Site
Developer: Kloonigames Publisher: Kloonigames
Genre: Casual, Indie
Languages: English
Tags: Puzzle (103), Indie (102), Casual (97), Physics (84), Family Friendly (54), Singleplayer (51), Touch-Friendly (48), 2D (41), Cute (37), Relaxing (20), Sandbox (17), Level Editor (15), Simulation (13), Great Soundtrack (9), Hand-drawn (7)
Category: Single-player
Release date: Jan 7, 2009
Price: $19.99
Old userscore: 86% Metascore: 79%
Owners: 500,000 .. 1,000,000
Followers: 1,498
Peak concurrent players yesterday: 5
Playtime total: 01:23 (average) 01:35 (median)

Steam Spy is still in beta, so expect major bugs.

Owners data:

Access restricted.

This feature is only available to users with special access rights. Sorry.

If you want to proceed, you need to register or log in first and then back Steam Spy on Patreon. Look for Indie or Pro pledge.

Don't forget to use the same email as on Steam Spy!

Audience in 2 weeks:

Access restricted.

This feature is only available to users with special access rights. Sorry.

If you want to proceed, you need to register or log in first and then back Steam Spy on Patreon. Look for Indie or Pro pledge.

Don't forget to use the same email as on Steam Spy!

Peak daily concurrent players:

CCU data courtesy of SteamDB. Used with permission.

Hourly concurrent players:

Daily Twitch stats:

Hourly Twitch stats:

Followers over time

Access restricted.

This feature is only available to users with special access rights. Sorry.

If you want to proceed, you need to register or log in first and then back Steam Spy on Patreon. Look for Indie or Pro pledge.

Don't forget to use the same email as on Steam Spy!

Views for top 50 videos on YouTube for this game:

Games similar to this one:

# Game Release date
Price
Score rank
(Userscore / Metascore)
Owners
Players
Playtime (Median)
1 Mu Cartographer May 29, 2016 $4.99N/A (N/A)20,000 .. 50,0000%00:00 (00:00)
2 Golf for Workgroups Apr 6, 2017 $4.99N/A (N/A)0 .. 20,0000%00:00 (00:00)
3 Dots eXtreme Jun 12, 2016 $1.99N/A (N/A)20,000 .. 50,0000%00:00 (00:00)
4 Winexy Jan 13, 2017 $4.99N/A (N/A)50,000 .. 100,0000%00:00 (00:00)
5 Timore 5 Aug 25, 2016 $7.99N/A (N/A)0 .. 20,0000%00:00 (00:00)
6 Stickmageddon Jun 27, 2017 $0.99N/A (N/A)50,000 .. 100,00017.39%01:46 (02:01)
7 Carrie's Order Up! Sep 13, 2016 $2.99N/A (N/A)0 .. 20,0000%00:00 (00:00)
8 Ninja Stealth 2 Jan 30, 2017 $0.99N/A (N/A)50,000 .. 100,0000%00:00 (00:00)
9 Don't Chat With Strangers Jan 6, 2017 $4.99N/A (N/A)20,000 .. 50,0000%00:00 (00:00)
10 Dungeon Painter Studio Feb 26, 2017 $14.99N/A (N/A)50,000 .. 100,00025%04:34 (01:31)
11 Kombine Oct 14, 2016 $0.99N/A (N/A)0 .. 20,0000%00:00 (00:00)
12 Oik 2 Mar 28, 2017 $0.99N/A (N/A)50,000 .. 100,0000%00:00 (00:00)
13 Luke Sidewalker Nov 25, 2016 FreeN/A (N/A)50,000 .. 100,0000%00:00 (00:00)
14 CrossCells May 26, 2017 $2.99N/A (N/A)50,000 .. 100,0000%00:00 (00:00)
15 Masky Dec 16, 2016 $0.99N/A (N/A)20,000 .. 50,0000%00:00 (00:00)
16 CarX Drift Racing Online Nov 17, 2017 $14.99N/A (N/A)200,000 .. 500,0000%00:00 (00:00)
17 Satellite Repairman Feb 2, 2017 $3.99N/A (N/A)0 .. 20,0000%00:00 (00:00)
18 LogiGun Aug 1, 2012 $4.99N/A (N/A)0 .. 20,0000%00:00 (00:00)
19 Prelogate Dec 10, 2014 $3.99N/A (N/A)0 .. 20,0000%00:00 (00:00)
20 Metrocide Oct 20, 2014 $12.99N/A (N/A/68%)50,000 .. 100,0000%00:00 (00:00)
21 1931: Scheherazade at the Library of Pergamum Mar 26, 2015 $9.99N/A (N/A)0 .. 20,0000%00:00 (00:00)
22 A Good Snowman Is Hard To Build Feb 25, 2015 $9.99N/A (N/A)50,000 .. 100,0000%00:00 (00:00)
23 Goats on a Bridge Feb 6, 2015 $4.99N/A (N/A)20,000 .. 50,0000%00:00 (00:00)
24 Quantum Rush Champions Dec 4, 2014 $9.99N/A (N/A)20,000 .. 50,0000%00:00 (00:00)
25 Marble Duel: Sphere-Matching Tactical Fantasy Nov 12, 2015 $14.99N/A (N/A)50,000 .. 100,0000%00:00 (00:00)
26 Beyond Gravity Sep 23, 2014 $1.99N/A (N/A)20,000 .. 50,0000%00:00 (00:00)
27 Castle Jan 7, 2015 $4.99N/A (N/A)20,000 .. 50,0000%00:00 (00:00)
28 Cosmonautica Jul 31, 2015 $9.99N/A (N/A)200,000 .. 500,0000%00:00 (00:00)
29 Cubot Jan 8, 2015 $1.99N/A (N/A)20,000 .. 50,0000%00:00 (00:00)
30 Laserlife Sep 22, 2015 $9.99N/A (N/A)20,000 .. 50,0000%00:00 (00:00)
31 Unhack Feb 20, 2014 $3.99N/A (N/A)20,000 .. 50,0000%00:00 (00:00)
32 Letter Quest: Grimm's Journey Nov 20, 2014 $7.99N/A (N/A/73%)100,000 .. 200,0000%00:00 (00:00)
33 Pixel Survivors May 5, 2016 $3.99N/A (N/A)100,000 .. 200,0000%00:00 (00:00)
34 Vampires: Guide Them to Safety! Oct 22, 2014 $4.99N/A (N/A)0 .. 20,0000%00:00 (00:00)
35 Crash Drive 2 May 28, 2015 $4.99N/A (N/A)100,000 .. 200,0000%00:00 (00:00)
36 Red Goblin: Cursed Forest May 15, 2015 $4.99N/A (N/A)0 .. 20,0000%00:00 (00:00)
37 Pixel Puzzles 2: Birds Feb 20, 2015 $4.99N/A (N/A)200,000 .. 500,0000%00:00 (00:00)
38 Power of Love Jul 21, 2015 $0.99N/A (N/A)20,000 .. 50,0000%00:00 (00:00)
39 Astro Emporia Feb 2, 2015 $0.99N/A (N/A)20,000 .. 50,0000%00:00 (00:00)
40 Hired Ops Oct 21, 2016 FreeN/A (N/A)200,000 .. 500,0000%00:00 (00:00)
41 Streets of Chaos Jan 23, 2015 N/AN/A (N/A)100,000 .. 200,0000%00:00 (00:00)
42 Space Drifters 2D Mar 28, 2016 $0.99N/A (N/A)20,000 .. 50,0000%00:00 (00:00)
43 Racecraft Mar 4, 2016 FreeN/A (N/A)20,000 .. 50,0000%00:00 (00:00)
44 Fate Tectonics Sep 9, 2015 $0.49N/A (N/A)20,000 .. 50,0000%00:00 (00:00)
45 Terraform May 8, 2015 $2.99N/A (N/A)0 .. 20,0000%00:00 (00:00)
46 Koala Kids Jun 22, 2015 $1.99N/A (N/A)20,000 .. 50,0000%00:00 (00:00)
47 Pester Jan 25, 2013 $0.99N/A (N/A)100,000 .. 200,0000%00:00 (00:00)
48 Castles Oct 9, 2015 $2.99N/A (N/A)0 .. 20,0000%00:00 (00:00)
49 Unium Feb 3, 2015 $1.99N/A (N/A)0 .. 20,0000%00:00 (00:00)
50 Painters Guild Sep 1, 2015 $9.99N/A (N/A)20,000 .. 50,0000%00:00 (00:00)
51 The Reject Demon: Toko Chapter 0 — Prelude May 9, 2015 $4.99N/A (N/A)20,000 .. 50,0000%00:00 (00:00)
52 Job the Leprechaun Jul 31, 2015 $2.99N/A (N/A)20,000 .. 50,0000%00:00 (00:00)
53 Cibele Nov 2, 2015 $8.99N/A (N/A/71%)50,000 .. 100,0000%00:00 (00:00)
54 Fantastic Contraption Apr 5, 2016 $19.99N/A (N/A)0 .. 20,0000%00:00 (00:00)
55 Herding Dog Dec 25, 2015 $1.99N/A (N/A)0 .. 20,0000%00:00 (00:00)
56 Asphyxia Aug 4, 2015 $5.99N/A (N/A)20,000 .. 50,0000%00:00 (00:00)
57 Swapperoo Dec 18, 2015 $4.99N/A (N/A)0 .. 20,0000%00:00 (00:00)
58 Robot vs Birds Zombies Jun 1, 2013 $0.99N/A (N/A)500,000 .. 1,000,0000%00:00 (00:00)
59 Modbox Apr 5, 2016 N/AN/A (N/A)0 .. 20,0000%00:00 (00:00)
60 Collisions Jul 28, 2015 $1.99N/A (N/A)20,000 .. 50,0000%00:00 (00:00)
61 Feesh Feb 1, 2016 $0.99N/A (N/A)0 .. 20,0000%00:00 (00:00)
62 Army of Pixels Oct 29, 2015 $4.99N/A (N/A)0 .. 20,0000%00:00 (00:00)
63 Bunny Hop League Apr 27, 2017 $5.99N/A (N/A)50,000 .. 100,0000%00:00 (00:00)
64 Backgammon Blitz Nov 12, 2015 $3.99N/A (N/A)0 .. 20,0000%00:00 (00:00)
65 Moonlight Feb 5, 2016 $1.99N/A (N/A)0 .. 20,0000%00:00 (00:00)
66 Masochisia Oct 9, 2015 $7.99N/A (N/A/68%)20,000 .. 50,0000%00:00 (00:00)
67 Surfingers Jan 27, 2016 $1.99N/A (N/A)50,000 .. 100,0000%00:00 (00:00)
68 Lift It Jan 20, 2017 $4.99N/A (N/A)50,000 .. 100,0000%00:00 (00:00)
69 Sophie's Curse Mar 16, 2016 $4.99N/A (N/A)50,000 .. 100,0000%00:00 (00:00)
70 JiPS Apr 19, 2016 $2.99N/A (N/A)20,000 .. 50,0000%00:00 (00:00)
71 Caravanserail Feb 26, 2016 $2.99N/A (N/A)0 .. 20,0000%00:00 (00:00)
72 Forgotten, Not Lost - A Kinetic Novel Apr 2, 2016 $1.99N/A (N/A)20,000 .. 50,0000%00:00 (00:00)
73 Mind Games Mar 4, 2016 $2.99N/A (N/A)0 .. 20,0000%00:00 (00:00)
74 Melting Hearts: Our Love Will Grow 2 Apr 29, 2016 N/AN/A (N/A)20,000 .. 50,0000%00:00 (00:00)
75 Overload May 31, 2018 $29.99N/A (N/A/74%)50,000 .. 100,00018.18%09:05 (06:03)
76 Love in the Glen Jun 9, 2016 $5.99N/A (N/A)20,000 .. 50,0000%00:00 (00:00)
77 Whirligig VR Media Player Apr 4, 2016 $3.99N/A (N/A)20,000 .. 50,0000%00:00 (00:00)
78 One Last Chance Apr 7, 2016 $3.99N/A (N/A)20,000 .. 50,0000%00:00 (00:00)
79 Party Saboteurs: After Party Mar 31, 2016 $9.99N/A (N/A)0 .. 20,0000%00:00 (00:00)
80 Reptilian Rebellion Aug 8, 2016 $2.99N/A (N/A)50,000 .. 100,0000%00:00 (00:00)
81 Hustle Cat Mar 16, 2016 $19.99N/A (N/A)50,000 .. 100,0000%00:00 (00:00)
82 Townopolis Oct 19, 2008 $3.99N/A (N/A)0 .. 20,0000%00:00 (00:00)
83 Burst Mar 14, 2016 N/AN/A (N/A)50,000 .. 100,0000%00:00 (00:00)
84 Annie Amber Jun 17, 2016 $2.99N/A (N/A)0 .. 20,0000%00:00 (00:00)
85 [the Sequence] Mar 30, 2016 $4.99N/A (N/A)0 .. 20,0000%00:00 (00:00)
86 Gateways Sep 13, 2012 $4.99N/A (N/A/72%)50,000 .. 100,0000%00:00 (00:00)
87 Governor of Poker 2 - Premium Edition Oct 11, 2010 $14.99N/A (N/A)20,000 .. 50,0000%00:00 (00:00)
88 Girls Like Robots Feb 14, 2014 $6.99N/A (N/A)100,000 .. 200,0000%00:00 (00:00)
89 Cloudberry Kingdom Aug 2, 2013 N/AN/A (N/A/67%)20,000 .. 50,0000%00:00 (00:00)
90 Storm Jun 27, 2013 $9.99N/A (N/A/63%)20,000 .. 50,0000%00:00 (00:00)
91 Arcadia Dec 2, 2010 N/AN/A (N/A)0 .. 20,0000%00:00 (00:00)
92 Farm for your Life Jun 5, 2013 $9.99N/A (N/A)50,000 .. 100,0000%00:00 (00:00)
93 Thrillville: Off the Rails Oct 9, 2007 $9.99N/A (N/A/70%)20,000 .. 50,0000%00:00 (00:00)
94 Lunnye Devitsy Jul 1, 2009 $4.99N/A (N/A)20,000 .. 50,0000%00:00 (00:00)
95 Ancients of Ooga May 20, 2011 $9.99N/A (N/A)20,000 .. 50,0000%00:00 (00:00)
96 Grapple Mar 9, 2015 $6.99N/A (N/A)20,000 .. 50,0000%00:00 (00:00)
97 Everyday Genius: SquareLogic Oct 9, 2009 $4.99N/A (N/A)0 .. 20,0000%00:00 (00:00)
98 InFlux Jul 23, 2013 $9.99N/A (N/A)50,000 .. 100,0000%00:00 (00:00)
99 PixelJunk Eden Feb 2, 2012 $9.99N/A (N/A/81%)200,000 .. 500,0000%00:00 (00:00)
100 Dominique Pamplemousse Mar 11, 2014 $0.99N/A (N/A/62%)20,000 .. 50,0000%00:00 (00:00)
101 Restaurant Empire II May 27, 2009 $4.99N/A (N/A/64%)50,000 .. 100,0000%00:00 (00:00)
102 Soundodger+ Oct 11, 2013 $7.99N/A (N/A/78%)50,000 .. 100,0000%00:00 (00:00)
103 Blocks That Matter Aug 19, 2011 $4.99N/A (N/A/72%)200,000 .. 500,0000%00:00 (00:00)
104 Tribloos 2 Jan 12, 2013 $4.99N/A (N/A)100,000 .. 200,0004.55%00:01 (00:00)
105 Windosill May 26, 2009 $2.99N/A (N/A)100,000 .. 200,0000%00:00 (00:00)
106 Gravi Oct 8, 2013 $4.99N/A (N/A)0 .. 20,0000%00:00 (00:00)
107 Puzzler World 2 Oct 24, 2011 $4.99N/A (N/A)50,000 .. 100,0000%00:00 (00:00)
108 On Rusty Trails Jun 13, 2016 $12.99N/A (N/A/77%)20,000 .. 50,0000%00:00 (00:00)
109 Quantz Sep 3, 2009 $9.99N/A (N/A/67%)20,000 .. 50,0000%00:00 (00:00)
110 Particulars Nov 19, 2014 $5.99N/A (N/A/74%)0 .. 20,0000%00:00 (00:00)
111 Luxor Evolved Mar 1, 2012 $9.99N/A (N/A)50,000 .. 100,0000%00:00 (00:00)
112 Sportsfriends Dec 19, 2014 $14.99N/A (N/A)0 .. 20,0000%00:00 (00:00)
113 Luxor: 5th Passage Jan 25, 2011 $9.99N/A (N/A)50,000 .. 100,0000%00:00 (00:00)
114 Dead Man's Draw Feb 6, 2014 $6.99N/A (N/A)50,000 .. 100,0000%00:00 (00:00)
115 Auditorium Feb 28, 2012 $6.99N/A (N/A)50,000 .. 100,0000%00:00 (00:00)
116 Rage Runner May 16, 2014 $4.99N/A (N/A)0 .. 20,0000%00:00 (00:00)
117 Glowfish Sep 30, 2011 $9.99N/A (N/A)20,000 .. 50,0000%00:00 (00:00)
118 Smooth Operators Jan 14, 2013 $2.99N/A (N/A)20,000 .. 50,0000%00:00 (00:00)
119 Triple Town Dec 6, 2012 $9.99N/A (N/A)20,000 .. 50,0000%00:00 (00:00)
120 Titans of Space PLUS Dec 19, 2019 $9.99N/A (N/A)0 .. 20,0000%00:00 (00:00)
121 Hide and Secret Treasure of the Ages Mar 15, 2007 $4.99N/A (N/A)20,000 .. 50,0000%00:00 (00:00)
122 Autumn Sep 23, 2014 $2.99N/A (N/A)100,000 .. 200,0000%00:00 (00:00)
123 Gravity Cat Jul 13, 2016 $0.5N/A (N/A)20,000 .. 50,0000%00:00 (00:00)
124 The Dolls: Reborn May 25, 2016 $4.99N/A (N/A)20,000 .. 50,0000%00:00 (00:00)
125 12 Labours of Hercules V: Kids of Hellas (Platinum Edition) Jun 17, 2016 $2.99N/A (N/A)20,000 .. 50,0000%00:00 (00:00)
126 Magma Tsunami Jun 1, 2016 $0.99N/A (N/A)200,000 .. 500,0000%00:00 (00:00)
127 ConflictCraft Dec 8, 2016 $0.49N/A (N/A)100,000 .. 200,0000%00:00 (00:00)
128 Space Hole 2016 Sep 2, 2016 $0.99N/A (N/A)0 .. 20,0000%00:00 (00:00)
129 The Housewife Aug 25, 2016 $4.99N/A (N/A)200,000 .. 500,0000%00:00 (00:00)
130 Frog Climbers Oct 6, 2016 $6.99N/A (N/A)20,000 .. 50,0000%00:00 (00:00)
131 Riddles Of The Past Jul 22, 2016 $6.99N/A (N/A)20,000 .. 50,0000%00:00 (00:00)
132 Color Syndrome Jun 20, 2016 $0.99N/A (N/A)100,000 .. 200,0000%00:00 (00:00)
133 Farm Life: Natures Adventure Aug 8, 2016 $0.99N/A (N/A)50,000 .. 100,0000%00:00 (00:00)
134 Totally Unbalanced Jul 29, 2016 FreeN/A (N/A)100,000 .. 200,0000%00:00 (00:00)
135 CrossWorlds: Escape Mar 20, 2020 $9.99N/A (N/A)0 .. 20,0000%00:00 (00:00)
136 Dream Car Builder Sep 21, 2018 $9.99N/A (N/A)0 .. 20,0000%00:00 (00:00)
137 Pretentious Game May 20, 2014 $1.99N/A (N/A)50,000 .. 100,0000%00:00 (00:00)
138 The Floor is Jelly May 30, 2014 $9.99N/A (N/A/83%)50,000 .. 100,0000%00:00 (00:00)
139 PANORAMICAL Sep 17, 2015 $9.99N/A (N/A)0 .. 20,0000%00:00 (00:00)
140 Spy Chameleon - RGB Agent Jun 11, 2014 $4.99N/A (N/A)20,000 .. 50,0000%00:00 (00:00)
141 Strata May 29, 2014 $7.99N/A (N/A)20,000 .. 50,0000%00:00 (00:00)
142 Cyto Jul 10, 2014 $3.99N/A (N/A)20,000 .. 50,0000%00:00 (00:00)
143 Wildlife Park 3 May 12, 2014 $9.99N/A (N/A)100,000 .. 200,0000%00:00 (00:00)
144 The Counting Kingdom Aug 5, 2014 $6.99N/A (N/A)0 .. 20,0000%00:00 (00:00)
145 Sokobond Jul 21, 2014 $9.99N/A (N/A/82%)20,000 .. 50,0000%00:00 (00:00)
146 Hidden in Plain Sight Jul 16, 2014 $5.99N/A (N/A)0 .. 20,0000%00:00 (00:00)
147 Crazy Plant Shop Aug 4, 2014 $4.99N/A (N/A)20,000 .. 50,0000%00:00 (00:00)
148 Point Perfect Jul 17, 2014 $4.99N/A (N/A)50,000 .. 100,0000%00:00 (00:00)
149 Pressured Jul 18, 2014 $2.99N/A (N/A)200,000 .. 500,0000%00:00 (00:00)
150 Cute Things Dying Violently Sep 2, 2015 $2.99N/A (N/A)0 .. 20,0000%00:00 (00:00)
151 The Good Life Nov 2, 2012 $9.99N/A (N/A)0 .. 20,0000%00:00 (00:00)
152 Super Lemonade Factory Mar 15, 2012 $0.99N/A (N/A)0 .. 20,0000%00:00 (00:00)
153 Automation - The Car Company Tycoon Game Mar 12, 2015 $29.99N/A (N/A)200,000 .. 500,0000%00:00 (00:00)

Geography of active players over time, share:

Access restricted.

This feature is only available to users with special access rights. Sorry.

If you want to proceed, you need to register or log in first and then back Steam Spy on Patreon. Look for Indie or Pro pledge.

Don't forget to use the same email as on Steam Spy!

Tags over time:

Access restricted.

This feature is only available to users with special access rights. Sorry.

If you want to proceed, you need to register or log in first and then back Steam Spy on Patreon. Look for Indie or Pro pledge.

Don't forget to use the same email as on Steam Spy!

Owners of this game also own:

Access restricted.

This feature is only available to users with special access rights. Sorry.

If you want to proceed, you need to register or log in first and then back Steam Spy on Patreon. Look for Indie or Pro pledge.

Don't forget to use the same email as on Steam Spy!

Playtime distribution:

Access restricted.

This feature is only available to users with special access rights. Sorry.

If you want to proceed, you need to register or log in first and then back Steam Spy on Patreon. Look for Indie or Pro pledge.

Don't forget to use the same email as on Steam Spy!

Playtime (2 weeks):

Access restricted.

This feature is only available to users with special access rights. Sorry.

If you want to proceed, you need to register or log in first and then back Steam Spy on Patreon. Look for Indie or Pro pledge.

Don't forget to use the same email as on Steam Spy!

User reviews:

Login required.

Please register or log in to see this information.